Time;durP1;ratioP1;P1;durP2;ratioP2;P2;SDS_P1;SDS_P2;PMS_P1;PMS_P2;Temp;Humidity;BMP_temperature;BMP_pressure;BME280_temperature;BME280_humidity;BME280_pressure;Samples;Min_cycle;Max_cycle;Signal;HPM_P1;HPM_P2
2021/12/03 00:00:29;;;;;;;6.63;5.43;;;2.80;96.70;;;;;;5104707;28;20195;-85
2021/12/03 00:02:55;;;;;;;7.63;4.93;;;2.70;97.10;;;;;;5111048;28;20210;-85
2021/12/03 00:05:21;;;;;;;9.87;6.30;;;2.70;97.20;;;;;;5105783;28;20705;-86
2021/12/03 00:07:47;;;;;;;5.90;4.87;;;2.70;97.00;;;;;;5089982;28;20187;-86
2021/12/03 00:10:14;;;;;;;7.43;5.27;;;2.70;98.30;;;;;;5091286;28;20270;-84
2021/12/03 00:12:41;;;;;;;5.77;4.33;;;2.90;96.80;;;;;;5089130;28;20301;-84
2021/12/03 00:15:08;;;;;;;5.70;4.50;;;3.00;96.20;;;;;;5072839;28;20231;-84
2021/12/03 00:17:34;;;;;;;5.43;4.23;;;3.00;95.70;;;;;;5094519;28;20210;-85
2021/12/03 00:20:00;;;;;;;6.90;5.37;;;2.90;95.80;;;;;;5091932;28;20531;-85
2021/12/03 00:22:26;;;;;;;7.23;5.53;;;2.70;97.10;;;;;;5091019;28;20636;-85
2021/12/03 00:24:52;;;;;;;6.67;4.80;;;2.60;96.80;;;;;;5074958;28;20615;-85
2021/12/03 00:27:18;;;;;;;6.67;4.90;;;2.50;97.50;;;;;;5092040;28;20206;-85
2021/12/03 00:29:44;;;;;;;9.33;5.00;;;2.50;98.60;;;;;;5086205;28;20570;-86
2021/12/03 00:32:09;;;;;;;6.63;5.33;;;2.50;98.00;;;;;;5091849;28;20293;-85
2021/12/03 00:34:35;;;;;;;7.33;4.87;;;2.50;98.90;;;;;;5069027;28;20218;-85
2021/12/03 00:37:01;;;;;;;7.20;4.63;;;2.60;98.20;;;;;;5092015;28;20662;-85
2021/12/03 00:39:27;;;;;;;6.07;5.33;;;2.60;98.20;;;;;;5091369;28;20191;-85
2021/12/03 00:41:58;;;;;;;6.80;4.97;;;2.60;97.80;;;;;;5094950;28;20211;-85
2021/12/03 00:44:25;;;;;;;7.17;5.90;;;2.40;97.70;;;;;;5097685;28;20202;-85
2021/12/03 00:46:51;;;;;;;6.70;5.17;;;2.40;98.60;;;;;;5095562;28;20271;-86
2021/12/03 00:49:17;;;;;;;7.37;5.27;;;2.50;98.80;;;;;;5092734;28;20387;-84
2021/12/03 00:51:43;;;;;;;8.00;5.40;;;2.60;98.30;;;;;;5091123;28;20772;-85
2021/12/03 00:54:08;;;;;;;7.40;5.63;;;2.50;98.10;;;;;;5086517;28;20199;-85
2021/12/03 00:56:34;;;;;;;9.53;5.33;;;2.40;98.70;;;;;;5073815;28;20191;-85
2021/12/03 00:59:00;;;;;;;5.60;5.03;;;2.40;97.90;;;;;;5091696;28;20214;-85
2021/12/03 01:01:26;;;;;;;9.87;5.73;;;2.20;97.80;;;;;;5074091;28;20614;-85
2021/12/03 01:03:51;;;;;;;8.67;5.47;;;2.20;98.80;;;;;;5090936;28;20195;-85
2021/12/03 01:06:17;;;;;;;6.33;5.73;;;2.20;99.00;;;;;;5094900;28;20309;-85
2021/12/03 01:08:43;;;;;;;5.90;5.30;;;2.20;98.90;;;;;;5087282;28;20264;-85
2021/12/03 01:11:10;;;;;;;7.90;4.90;;;2.20;98.90;;;;;;5093121;28;20709;-85
2021/12/03 01:13:39;;;;;;;7.23;5.30;;;2.20;99.40;;;;;;5072266;28;20210;-85
2021/12/03 01:16:07;;;;;;;7.47;5.80;;;2.10;99.90;;;;;;5089852;28;20233;-85
2021/12/03 01:18:33;;;;;;;7.13;5.43;;;2.10;99.30;;;;;;5071866;28;20195;-85
2021/12/03 01:20:59;;;;;;;9.20;5.97;;;2.10;99.40;;;;;;5089379;28;20230;-85
2021/12/03 01:23:25;;;;;;;8.43;6.67;;;2.00;99.90;;;;;;5093622;28;20255;-85
2021/12/03 01:25:51;;;;;;;8.77;6.97;;;1.80;99.90;;;;;;5090623;28;20349;-85
2021/12/03 01:28:17;;;;;;;7.90;7.10;;;1.80;99.90;;;;;;5072382;28;20200;-85
2021/12/03 01:30:43;;;;;;;9.17;7.43;;;1.80;99.90;;;;;;5093296;28;20260;-85
2021/12/03 01:33:09;;;;;;;8.63;7.57;;;1.70;99.90;;;;;;5090962;28;20214;-85
2021/12/03 01:35:36;;;;;;;9.50;6.87;;;1.70;99.90;;;;;;5091187;28;20301;-84
2021/12/03 01:38:04;;;;;;;8.73;7.33;;;1.60;99.90;;;;;;5094025;28;20808;-85
2021/12/03 01:40:30;;;;;;;9.00;7.30;;;1.60;99.90;;;;;;5089373;28;20214;-85
2021/12/03 01:42:57;;;;;;;8.90;7.33;;;1.50;99.90;;;;;;5074149;28;20214;-84
2021/12/03 01:45:29;;;;;;;9.57;7.67;;;1.50;99.90;;;;;;5091577;28;20215;-85
2021/12/03 01:47:56;;;;;;;8.73;6.83;;;1.50;99.90;;;;;;5093910;28;20206;-85
2021/12/03 01:50:38;;;;;;;10.30;6.73;;;1.50;99.90;;;;;;5084996;28;20191;-85
2021/12/03 01:53:05;;;;;;;9.67;6.47;;;1.50;99.90;;;;;;5092995;28;20222;-85
2021/12/03 01:55:31;;;;;;;9.47;6.83;;;1.50;99.90;;;;;;5092942;28;20214;-85
2021/12/03 01:57:56;;;;;;;8.70;6.60;;;1.60;99.90;;;;;;5091356;28;20199;-85
2021/12/03 02:00:46;;;;;;;10.80;5.90;;;1.50;99.90;;;;;;5105763;28;20204;-84
2021/12/03 02:03:14;;;;;;;9.20;6.33;;;1.50;99.90;;;;;;5087041;28;20219;-84
2021/12/03 02:05:41;;;;;;;9.60;7.03;;;1.50;99.90;;;;;;5074221;28;20228;-84
2021/12/03 02:08:07;;;;;;;9.83;6.43;;;1.40;99.90;;;;;;5101597;28;20174;-84
2021/12/03 02:10:34;;;;;;;8.73;6.53;;;1.40;99.90;;;;;;5105140;28;20212;-84
2021/12/03 02:12:59;;;;;;;11.93;7.00;;;1.40;99.90;;;;;;5100808;28;20221;-84
2021/12/03 02:15:25;;;;;;;7.93;6.37;;;1.30;99.90;;;;;;5080480;28;20223;-84
2021/12/03 02:17:51;;;;;;;8.80;6.80;;;1.30;99.90;;;;;;5101237;28;20187;-84
2021/12/03 02:20:18;;;;;;;8.87;7.40;;;1.20;99.90;;;;;;5112354;28;20206;-83
2021/12/03 02:22:44;;;;;;;9.10;7.23;;;1.30;99.90;;;;;;5104305;28;20210;-85
2021/12/03 02:25:14;;;;;;;7.33;6.30;;;1.30;99.90;;;;;;5092445;28;20210;-85
2021/12/03 02:27:40;;;;;;;9.43;6.93;;;1.30;99.90;;;;;;5089661;28;20191;-85
2021/12/03 02:30:08;;;;;;;8.47;6.63;;;1.20;99.90;;;;;;5092551;28;20210;-85
2021/12/03 02:32:34;;;;;;;9.37;6.70;;;1.20;99.90;;;;;;5087980;28;20243;-85
2021/12/03 02:35:00;;;;;;;9.87;7.50;;;1.00;99.90;;;;;;5071937;28;20234;-84
2021/12/03 02:37:25;;;;;;;7.97;6.53;;;1.00;99.90;;;;;;5091313;28;20226;-85
2021/12/03 02:39:51;;;;;;;8.93;7.10;;;1.00;99.90;;;;;;5088655;28;20221;-85
2021/12/03 02:42:17;;;;;;;8.30;6.93;;;1.00;99.90;;;;;;5070583;28;20210;-85
2021/12/03 02:44:44;;;;;;;9.37;7.00;;;1.00;99.90;;;;;;5089108;28;20278;-85
2021/12/03 02:47:10;;;;;;;9.53;7.00;;;1.00;99.90;;;;;;5090811;28;20203;-85
2021/12/03 02:49:40;;;;;;;10.23;7.13;;;1.10;99.90;;;;;;5091378;28;20206;-85
2021/12/03 02:52:07;;;;;;;9.67;6.77;;;1.00;99.90;;;;;;5088485;28;20390;-85
2021/12/03 02:54:33;;;;;;;8.67;7.10;;;1.10;99.90;;;;;;5073961;28;20249;-84
2021/12/03 02:57:01;;;;;;;10.83;7.27;;;1.20;99.90;;;;;;5091784;28;20195;-84
2021/12/03 02:59:27;;;;;;;8.93;6.97;;;1.20;99.90;;;;;;5089872;28;20209;-85
2021/12/03 03:01:53;;;;;;;8.37;7.17;;;1.20;99.90;;;;;;5073429;28;20215;-85
2021/12/03 03:04:18;;;;;;;9.33;6.87;;;1.10;99.90;;;;;;5093538;28;20191;-86
2021/12/03 03:06:44;;;;;;;10.43;7.80;;;1.00;99.90;;;;;;5091272;28;20596;-85
2021/12/03 03:09:11;;;;;;;11.77;7.63;;;0.90;99.90;;;;;;5089172;28;20218;-85
2021/12/03 03:11:38;;;;;;;9.43;8.30;;;0.90;99.90;;;;;;5088160;28;20267;-85
2021/12/03 03:14:04;;;;;;;9.43;7.47;;;0.80;99.90;;;;;;5085276;28;20560;-85
2021/12/03 03:16:31;;;;;;;12.30;8.60;;;0.70;99.90;;;;;;5095651;28;20237;-85
2021/12/03 03:18:57;;;;;;;10.37;7.10;;;0.80;99.90;;;;;;5089082;28;20599;-85
2021/12/03 03:21:23;;;;;;;14.50;9.27;;;0.80;99.90;;;;;;5071694;28;20271;-85
2021/12/03 03:23:49;;;;;;;12.90;8.77;;;0.60;99.90;;;;;;5086856;28;20197;-84
2021/12/03 03:26:15;;;;;;;11.37;8.90;;;0.50;99.90;;;;;;5075125;28;20191;-85
2021/12/03 03:28:43;;;;;;;10.77;8.57;;;0.60;99.90;;;;;;5092979;28;20247;-85
2021/12/03 03:31:08;;;;;;;9.80;8.03;;;0.50;99.90;;;;;;5093667;28;20230;-85
2021/12/03 03:33:35;;;;;;;12.30;8.63;;;0.50;99.90;;;;;;5091713;28;20223;-85
2021/12/03 03:36:01;;;;;;;11.80;8.77;;;0.50;99.90;;;;;;5096793;28;20229;-85
2021/12/03 03:38:27;;;;;;;13.07;9.27;;;0.50;99.90;;;;;;5092546;28;20206;-85
2021/12/03 03:40:54;;;;;;;12.73;9.33;;;0.50;99.90;;;;;;5075814;28;20201;-85
2021/12/03 03:43:20;;;;;;;13.07;9.97;;;0.60;99.90;;;;;;5087740;28;20195;-84
2021/12/03 03:45:46;;;;;;;13.87;8.83;;;0.50;99.90;;;;;;5077268;28;20240;-85
2021/12/03 03:48:13;;;;;;;12.20;9.33;;;0.50;99.90;;;;;;5098832;28;20285;-85
2021/12/03 03:50:39;;;;;;;12.73;9.23;;;0.60;99.90;;;;;;5073982;28;20206;-84
2021/12/03 03:53:05;;;;;;;11.33;8.67;;;0.50;99.90;;;;;;5092944;28;20215;-85
2021/12/03 03:55:32;;;;;;;11.37;8.83;;;0.50;99.90;;;;;;5074576;28;20305;-84
2021/12/03 03:58:00;;;;;;;11.47;8.60;;;0.50;99.90;;;;;;5091661;28;20195;-85
2021/12/03 04:00:31;;;;;;;11.37;8.93;;;0.50;99.90;;;;;;5066095;28;20248;-84
2021/12/03 04:02:56;;;;;;;13.50;9.27;;;0.50;99.90;;;;;;5090347;28;20681;-85
2021/12/03 04:05:22;;;;;;;13.73;10.77;;;0.50;99.90;;;;;;5091882;28;20205;-85
2021/12/03 04:07:48;;;;;;;13.07;9.10;;;0.40;99.90;;;;;;5074399;28;20294;-84
2021/12/03 04:10:14;;;;;;;13.00;9.60;;;0.40;99.90;;;;;;5090528;28;20218;-84
2021/12/03 04:12:40;;;;;;;10.87;9.27;;;0.40;99.90;;;;;;5090498;28;20638;-84
2021/12/03 04:15:08;;;;;;;13.13;9.23;;;0.40;99.90;;;;;;5093596;28;20250;-84
2021/12/03 04:17:34;;;;;;;11.17;9.17;;;0.40;99.90;;;;;;5093543;28;20334;-84
2021/12/03 04:20:00;;;;;;;11.97;9.73;;;0.40;99.90;;;;;;5073703;28;20199;-85
2021/12/03 04:22:26;;;;;;;12.03;9.13;;;0.40;99.90;;;;;;5091152;28;20278;-84
2021/12/03 04:24:54;;;;;;;13.30;9.37;;;0.40;99.90;;;;;;5059605;28;20589;-85
2021/12/03 04:27:20;;;;;;;14.03;9.53;;;0.40;99.90;;;;;;5085923;28;20206;-84
2021/12/03 04:29:46;;;;;;;12.07;9.47;;;0.40;99.90;;;;;;5085585;28;20201;-83
2021/12/03 04:32:12;;;;;;;12.17;10.00;;;0.30;99.90;;;;;;5097563;28;20217;-84
2021/12/03 04:34:38;;;;;;;14.07;9.43;;;0.30;99.90;;;;;;5086359;28;20234;-84
2021/12/03 04:37:04;;;;;;;12.60;9.90;;;0.30;99.90;;;;;;5114022;28;20278;-84
2021/12/03 04:39:30;;;;;;;13.53;10.53;;;0.30;99.90;;;;;;5110781;28;20569;-85
2021/12/03 04:41:55;;;;;;;16.33;9.40;;;0.30;99.90;;;;;;5081812;28;20268;-85
2021/12/03 04:44:21;;;;;;;13.10;10.30;;;0.20;99.90;;;;;;5092577;28;20661;-85
2021/12/03 04:46:47;;;;;;;12.93;9.70;;;0.20;99.90;;;;;;5100515;28;20198;-84
2021/12/03 04:49:12;;;;;;;13.43;9.87;;;0.30;99.90;;;;;;5112625;28;20171;-85
2021/12/03 04:51:38;;;;;;;13.70;9.93;;;0.30;99.90;;;;;;5077287;28;20226;-85
2021/12/03 04:54:04;;;;;;;13.13;9.70;;;0.30;99.90;;;;;;5077283;28;20273;-85
2021/12/03 04:56:30;;;;;;;14.00;10.70;;;0.30;99.90;;;;;;5092081;28;20398;-83
2021/12/03 04:58:55;;;;;;;16.30;10.60;;;0.30;99.90;;;;;;5087055;28;20195;-85
2021/12/03 05:01:21;;;;;;;13.87;10.03;;;0.40;99.90;;;;;;5070719;28;20268;-85
2021/12/03 05:03:47;;;;;;;16.17;10.63;;;0.30;99.90;;;;;;5073997;28;20328;-84
2021/12/03 05:06:19;;;;;;;15.73;10.93;;;0.20;99.90;;;;;;5093755;28;20275;-84
2021/12/03 05:08:45;;;;;;;13.60;10.87;;;0.20;99.90;;;;;;5089655;28;20207;-85
2021/12/03 05:11:11;;;;;;;12.00;9.60;;;0.20;99.90;;;;;;5092745;28;20314;-85
2021/12/03 05:13:37;;;;;;;13.43;10.23;;;0.00;99.90;;;;;;5076028;28;20199;-84
2021/12/03 05:16:04;;;;;;;15.10;10.77;;;0.10;99.90;;;;;;5087365;28;20223;-85
2021/12/03 05:18:31;;;;;;;16.03;10.80;;;0.10;99.90;;;;;;5090111;28;20265;-85
2021/12/03 05:21:00;;;;;;;12.97;10.23;;;0.00;99.90;;;;;;5090090;28;20195;-84
2021/12/03 05:23:28;;;;;;;15.17;11.07;;;0.00;99.90;;;;;;5073810;28;20256;-84
2021/12/03 05:25:54;;;;;;;14.27;10.87;;;0.00;99.90;;;;;;5088287;28;20202;-85
2021/12/03 05:28:21;;;;;;;12.40;9.60;;;0.00;99.90;;;;;;5089569;28;20200;-85
2021/12/03 05:30:47;;;;;;;15.80;10.70;;;0.10;99.90;;;;;;5094014;28;20302;-85
2021/12/03 05:33:13;;;;;;;15.43;10.90;;;0.00;99.90;;;;;;5092048;28;20238;-85
2021/12/03 05:35:39;;;;;;;13.53;10.67;;;0.00;99.90;;;;;;5075467;28;20218;-85
2021/12/03 05:38:05;;;;;;;15.10;10.20;;;-0.10;99.90;;;;;;5074180;28;20183;-84
2021/12/03 05:40:31;;;;;;;15.47;10.67;;;-0.10;99.90;;;;;;5092210;28;20658;-84
2021/12/03 05:42:57;;;;;;;14.43;11.00;;;0.00;99.90;;;;;;5103054;28;20336;-85
2021/12/03 05:45:28;;;;;;;14.10;11.00;;;-0.10;99.90;;;;;;5098051;28;20225;-85
2021/12/03 05:47:57;;;;;;;14.27;10.50;;;-0.20;99.90;;;;;;5088811;28;20344;-85
2021/12/03 05:50:23;;;;;;;16.27;11.50;;;-0.10;99.90;;;;;;5088049;28;20221;-85
2021/12/03 05:52:51;;;;;;;14.23;9.97;;;-0.20;99.90;;;;;;5072074;28;20290;-85
2021/12/03 05:55:18;;;;;;;14.40;10.17;;;-0.20;99.90;;;;;;5080335;28;20629;-85
2021/12/03 05:57:45;;;;;;;13.50;10.00;;;-0.20;99.90;;;;;;5084609;28;20469;-85
2021/12/03 06:00:15;;;;;;;14.23;10.50;;;-0.20;99.90;;;;;;5085002;28;20187;-85
2021/12/03 06:02:41;;;;;;;13.27;10.70;;;-0.20;99.90;;;;;;5086737;28;20209;-85
2021/12/03 06:05:08;;;;;;;13.07;10.33;;;-0.20;99.90;;;;;;5090892;28;20198;-85
2021/12/03 06:07:33;;;;;;;12.30;10.50;;;-0.20;99.90;;;;;;5071217;28;20248;-86
2021/12/03 06:09:59;;;;;;;16.03;10.63;;;-0.20;99.90;;;;;;5075046;28;20199;-86
2021/12/03 06:12:25;;;;;;;13.30;9.67;;;-0.10;99.90;;;;;;5090634;28;20217;-85
2021/12/03 06:14:50;;;;;;;13.33;9.90;;;-0.20;99.90;;;;;;5052611;28;20246;-86
2021/12/03 06:17:16;;;;;;;13.27;10.07;;;-0.20;99.90;;;;;;5091172;28;20206;-85
2021/12/03 06:19:43;;;;;;;13.33;10.47;;;-0.30;99.90;;;;;;5074539;28;20634;-85
2021/12/03 06:22:09;;;;;;;12.60;9.83;;;-0.30;99.90;;;;;;5090723;28;20264;-85
2021/12/03 06:24:36;;;;;;;13.20;9.53;;;-0.20;99.90;;;;;;5085531;28;20191;-86
2021/12/03 06:27:02;;;;;;;12.30;9.60;;;-0.30;99.90;;;;;;5072865;28;20210;-85
2021/12/03 06:29:28;;;;;;;13.20;9.30;;;-0.30;99.90;;;;;;5091360;28;20226;-85
2021/12/03 06:31:54;;;;;;;13.10;9.43;;;-0.30;99.90;;;;;;5087910;28;20244;-85
2021/12/03 06:34:19;;;;;;;11.27;8.77;;;-0.30;99.90;;;;;;5090810;28;20222;-86
2021/12/03 06:36:45;;;;;;;13.13;8.40;;;-0.30;99.90;;;;;;5095413;28;20235;-85
2021/12/03 06:39:11;;;;;;;10.33;8.50;;;-0.20;99.90;;;;;;5089044;28;20581;-85
2021/12/03 06:41:37;;;;;;;8.97;7.53;;;-0.10;99.90;;;;;;5065719;28;20215;-85
2021/12/03 06:44:05;;;;;;;11.40;8.40;;;-0.10;99.90;;;;;;5066771;28;20202;-85
2021/12/03 06:46:32;;;;;;;11.57;8.10;;;0.00;99.90;;;;;;5083777;28;20201;-85
2021/12/03 06:48:58;;;;;;;10.87;8.67;;;0.00;99.90;;;;;;5064823;28;20653;-85
2021/12/03 06:51:24;;;;;;;12.33;8.40;;;-0.10;99.90;;;;;;5090767;28;20215;-85
2021/12/03 06:54:00;;;;;;;9.83;8.47;;;0.00;99.90;;;;;;5108554;28;20198;-84
2021/12/03 06:56:33;;;;;;;11.43;7.93;;;-0.10;99.90;;;;;;5098263;28;20225;-85
2021/12/03 06:58:59;;;;;;;10.30;8.00;;;0.00;99.90;;;;;;5108590;28;20242;-85
2021/12/03 07:01:25;;;;;;;10.67;8.57;;;0.00;99.90;;;;;;5090067;28;20254;-86
2021/12/03 07:03:50;;;;;;;11.67;7.73;;;0.10;99.90;;;;;;5072085;28;20536;-86
2021/12/03 07:06:16;;;;;;;10.97;8.10;;;0.20;99.90;;;;;;5089643;28;20708;-86
2021/12/03 07:08:42;;;;;;;12.83;7.87;;;0.20;99.90;;;;;;5070695;28;20527;-86
2021/12/03 07:11:07;;;;;;;8.50;7.47;;;0.30;99.90;;;;;;5090423;28;20241;-86
2021/12/03 07:13:33;;;;;;;10.27;8.20;;;0.30;99.90;;;;;;5088125;28;20194;-86
2021/12/03 07:15:59;;;;;;;8.83;7.20;;;0.30;99.90;;;;;;5069519;28;20688;-86
2021/12/03 07:18:25;;;;;;;8.97;6.47;;;0.30;99.90;;;;;;5084192;28;20692;-86
2021/12/03 07:20:51;;;;;;;7.60;6.43;;;0.30;99.90;;;;;;5087219;28;20195;-86
2021/12/03 07:23:17;;;;;;;7.70;6.47;;;0.40;99.90;;;;;;5073274;28;20353;-86
2021/12/03 07:25:43;;;;;;;8.53;6.27;;;0.40;99.90;;;;;;5087650;28;20202;-86
2021/12/03 07:28:09;;;;;;;7.67;6.00;;;0.50;99.90;;;;;;5066322;28;20222;-86
2021/12/03 07:30:35;;;;;;;8.87;6.10;;;0.60;99.90;;;;;;5087571;28;20294;-85
2021/12/03 07:33:01;;;;;;;9.83;5.57;;;0.60;99.90;;;;;;5089252;28;20234;-86
2021/12/03 07:35:27;;;;;;;8.30;4.83;;;0.80;99.90;;;;;;5101934;28;20229;-85
2021/12/03 07:37:54;;;;;;;7.30;5.50;;;0.90;99.90;;;;;;5113244;28;20220;-85
2021/12/03 07:40:20;;;;;;;8.30;5.03;;;0.80;99.10;;;;;;5091803;28;20198;-85
2021/12/03 07:42:46;;;;;;;9.40;5.30;;;1.00;98.20;;;;;;5084793;28;20217;-85
2021/12/03 07:45:14;;;;;;;7.13;5.37;;;1.00;98.50;;;;;;5110878;28;20193;-84
2021/12/03 07:47:40;;;;;;;6.43;5.17;;;0.90;98.90;;;;;;5110973;28;20179;-85
2021/12/03 07:50:08;;;;;;;7.80;5.70;;;0.80;99.50;;;;;;5086743;28;20194;-85
2021/12/03 07:52:34;;;;;;;9.67;5.67;;;0.80;99.30;;;;;;5089655;28;20217;-86
2021/12/03 07:54:59;;;;;;;6.77;5.17;;;0.90;99.80;;;;;;5075507;28;20341;-85
2021/12/03 07:57:25;;;;;;;5.67;4.97;;;1.00;98.50;;;;;;5089045;28;20262;-85
2021/12/03 07:59:51;;;;;;;5.63;4.60;;;1.10;98.10;;;;;;5068279;28;20225;-85
2021/12/03 08:02:17;;;;;;;7.57;5.10;;;1.10;97.60;;;;;;5085597;28;20271;-86
2021/12/03 08:04:43;;;;;;;6.40;4.53;;;1.10;97.40;;;;;;5069167;28;20310;-86
2021/12/03 08:07:09;;;;;;;7.47;4.47;;;1.20;97.70;;;;;;5067137;28;20271;-86
2021/12/03 08:09:35;;;;;;;6.70;4.60;;;1.30;97.30;;;;;;5094944;28;20204;-85
2021/12/03 08:12:01;;;;;;;6.60;4.60;;;1.40;96.50;;;;;;5102867;28;20210;-85
2021/12/03 08:14:27;;;;;;;7.17;4.63;;;1.50;96.70;;;;;;5083959;28;20207;-86
2021/12/03 08:16:53;;;;;;;5.37;4.30;;;1.30;97.40;;;;;;5090673;28;20198;-86
2021/12/03 08:19:18;;;;;;;7.77;4.80;;;1.40;95.80;;;;;;5094170;28;20202;-86
2021/12/03 08:21:44;;;;;;;6.50;4.73;;;1.30;96.60;;;;;;5090931;28;20642;-86
2021/12/03 08:24:10;;;;;;;6.73;4.63;;;1.30;96.30;;;;;;5090526;28;20229;-86
2021/12/03 08:26:35;;;;;;;6.23;4.53;;;1.30;97.10;;;;;;5093859;28;20220;-86
2021/12/03 08:29:01;;;;;;;5.77;5.23;;;1.30;96.70;;;;;;5091059;28;20565;-85
2021/12/03 08:31:27;;;;;;;8.07;4.67;;;1.50;96.20;;;;;;5089549;28;20823;-85
2021/12/03 08:33:53;;;;;;;6.73;4.67;;;1.50;96.00;;;;;;5089794;28;20275;-85
2021/12/03 08:36:19;;;;;;;5.53;4.70;;;1.60;95.40;;;;;;5094626;28;20206;-85
2021/12/03 08:38:45;;;;;;;9.13;4.63;;;1.50;96.80;;;;;;5089507;28;20191;-85
2021/12/03 08:41:13;;;;;;;5.57;4.80;;;1.60;96.70;;;;;;5072035;28;20198;-85
2021/12/03 08:43:40;;;;;;;7.30;5.50;;;1.70;96.30;;;;;;5096040;28;20174;-85
2021/12/03 08:46:11;;;;;;;7.33;5.17;;;1.60;97.00;;;;;;5073410;28;20199;-85
2021/12/03 08:48:39;;;;;;;7.13;5.63;;;1.70;96.40;;;;;;5070983;28;20204;-85
2021/12/03 08:56:27;;;;;;;8.13;6.10;;;1.70;97.20;;;;;;5091168;28;20234;-85
2021/12/03 08:58:53;;;;;;;8.13;5.97;;;1.90;96.50;;;;;;5073019;28;20192;-85
2021/12/03 09:01:19;;;;;;;6.77;6.07;;;1.90;97.40;;;;;;5091128;28;20585;-85
2021/12/03 09:03:45;;;;;;;7.70;5.57;;;1.90;97.30;;;;;;5072773;28;20203;-85
2021/12/03 09:06:10;;;;;;;10.93;6.83;;;2.10;96.90;;;;;;5088126;28;20191;-85
2021/12/03 09:08:36;;;;;;;9.10;6.70;;;2.00;97.40;;;;;;5065535;28;20195;-86
2021/12/03 09:11:02;;;;;;;9.00;6.40;;;2.10;96.80;;;;;;5114370;28;20190;-85
2021/12/03 09:13:28;;;;;;;7.13;5.63;;;2.30;95.40;;;;;;5101105;28;20218;-85
2021/12/03 09:16:01;;;;;;;7.37;6.33;;;2.30;95.50;;;;;;5094449;28;20231;-85
2021/12/03 09:18:32;;;;;;;8.47;6.17;;;2.30;96.10;;;;;;5100433;28;20167;-86
2021/12/03 09:21:04;;;;;;;11.00;6.03;;;2.30;95.90;;;;;;5088001;28;20191;-86
2021/12/03 09:26:16;;;;;;;10.57;6.50;;;2.40;95.60;;;;;;5088541;28;20553;-86
2021/12/03 09:28:50;;;;;;;8.47;6.43;;;2.40;95.50;;;;;;5070013;28;20175;-86
2021/12/03 09:31:17;;;;;;;7.83;5.57;;;2.40;96.50;;;;;;5087911;28;20221;-86
2021/12/03 09:33:46;;;;;;;10.10;6.80;;;2.50;96.10;;;;;;5087628;28;20280;-86
2021/12/03 09:36:12;;;;;;;9.87;6.70;;;2.50;95.40;;;;;;5089602;28;20234;-86
2021/12/03 09:38:38;;;;;;;9.67;6.40;;;2.50;95.50;;;;;;5089532;28;20287;-86
2021/12/03 09:41:13;;;;;;;7.30;5.90;;;2.40;95.10;;;;;;5087440;28;20183;-86
2021/12/03 09:43:41;;;;;;;6.90;6.20;;;2.40;95.60;;;;;;5067544;28;20268;-86
2021/12/03 09:46:15;;;;;;;8.70;6.93;;;2.40;96.20;;;;;;5085402;28;20545;-86
2021/12/03 09:49:03;;;;;;;8.13;6.27;;;2.30;96.60;;;;;;5065616;28;20190;-86
2021/12/03 09:51:38;;;;;;;8.97;6.90;;;2.40;96.40;;;;;;5088808;28;20214;-86
2021/12/03 09:56:33;;;;;;;8.20;6.90;;;2.40;97.10;;;;;;5083654;28;20203;-86
2021/12/03 10:15:11;;;;;;;10.67;7.67;;;3.00;95.10;;;;;;5079930;28;20217;-85
2021/12/03 10:17:49;;;;;;;8.67;7.30;;;3.10;95.30;;;;;;5085885;28;20180;-86
2021/12/03 10:40:00;;;;;;;7.63;4.57;;;4.30;84.30;;;;;;5096282;28;20178;-87
2021/12/03 11:17:38;;;;;;;6.63;4.83;;;3.10;86.20;;;;;;5079570;28;20191;-86
2021/12/03 12:04:41;;;;;;;5.13;4.43;;;3.40;83.10;;;;;;5074269;28;20669;-85
2021/12/03 13:11:11;;;;;;;8.03;6.20;;;3.60;85.30;;;;;;5099769;28;20185;-85
2021/12/03 13:57:42;;;;;;;6.13;4.43;;;3.70;81.80;;;;;;5095083;28;20300;-86
2021/12/03 13:59:56;;;;;;;6.40;4.70;;;3.80;81.60;;;;;;5093229;28;20199;-86
2021/12/03 14:36:20;;;;;;;5.30;4.33;;;3.80;80.60;;;;;;5098416;28;20192;-86
2021/12/03 14:49:09;;;;;;;5.73;5.23;;;3.50;81.10;;;;;;5078166;28;20210;-85
2021/12/03 14:54:28;;;;;;;5.83;4.73;;;3.50;81.30;;;;;;5095775;28;20206;-86
2021/12/03 15:35:54;;;;;;;6.47;4.47;;;3.30;82.60;;;;;;5071206;28;20720;-85
2021/12/03 16:05:04;;;;;;;7.30;4.03;;;3.20;81.70;;;;;;5093330;28;20205;-83
2021/12/03 16:10:25;;;;;;;5.20;4.30;;;3.30;81.60;;;;;;5096719;28;20206;-84
2021/12/03 16:52:33;;;;;;;4.93;4.43;;;3.20;80.90;;;;;;5083933;28;20218;-88
2021/12/03 16:55:01;;;;;;;7.43;4.90;;;3.20;80.80;;;;;;5076188;28;20226;-88
2021/12/03 16:57:29;;;;;;;7.00;5.10;;;3.20;80.60;;;;;;5077584;28;20191;-88
2021/12/03 16:59:57;;;;;;;6.23;4.60;;;3.20;81.10;;;;;;5083512;28;20291;-87
2021/12/03 17:02:40;;;;;;;7.77;4.57;;;3.20;81.00;;;;;;5078866;28;20187;-86
2021/12/03 17:08:25;;;;;;;11.67;9.43;;;3.20;80.80;;;;;;5070813;28;20200;-87
2021/12/03 17:58:22;;;;;;;7.03;4.80;;;3.20;78.70;;;;;;5076175;28;20724;-87
2021/12/03 18:11:43;;;;;;;4.10;3.73;;;3.10;79.40;;;;;;5061679;28;20282;-89
2021/12/03 18:16:36;;;;;;;5.33;4.27;;;3.10;80.20;;;;;;5061286;28;20241;-88
2021/12/03 18:43:48;;;;;;;5.27;3.87;;;3.00;78.50;;;;;;5078768;28;20190;-88
2021/12/03 18:56:31;;;;;;;4.13;3.70;;;3.00;77.70;;;;;;5077589;28;20214;-89
2021/12/03 18:59:00;;;;;;;5.33;4.43;;;3.10;77.40;;;;;;5076884;28;20206;-88
2021/12/03 19:01:28;;;;;;;5.60;3.67;;;3.20;77.30;;;;;;5065356;28;20284;-88
2021/12/03 19:06:27;;;;;;;6.03;3.33;;;3.20;76.70;;;;;;5085685;28;20202;-88
2021/12/03 19:09:12;;;;;;;3.47;3.17;;;3.30;75.60;;;;;;5067357;28;20250;-89
2021/12/03 19:14:21;;;;;;;4.50;3.20;;;3.30;75.40;;;;;;5098050;28;20186;-89
2021/12/03 19:16:47;;;;;;;3.50;3.20;;;3.30;76.10;;;;;;5088563;28;20279;-87
2021/12/03 19:19:16;;;;;;;3.80;3.40;;;3.30;75.40;;;;;;5070734;28;20195;-88
2021/12/03 19:21:43;;;;;;;4.43;3.43;;;3.30;74.90;;;;;;5068992;28;20219;-88
2021/12/03 19:24:13;;;;;;;5.87;3.77;;;3.20;75.70;;;;;;5057333;28;20270;-88
2021/12/03 19:26:44;;;;;;;4.13;3.30;;;3.20;75.60;;;;;;5067049;28;20187;-88
2021/12/03 19:29:16;;;;;;;4.33;3.37;;;3.20;74.60;;;;;;5066712;28;20183;-89
2021/12/03 19:31:43;;;;;;;3.70;3.17;;;3.10;74.50;;;;;;5049377;28;20222;-88
2021/12/03 19:34:10;;;;;;;4.53;3.30;;;3.10;74.60;;;;;;5089270;28;20198;-88
2021/12/03 19:36:42;;;;;;;4.33;3.27;;;3.10;73.20;;;;;;5083093;28;20219;-89
2021/12/03 19:39:10;;;;;;;5.80;3.23;;;3.30;71.70;;;;;;5080364;28;20195;-88
2021/12/03 19:44:06;;;;;;;4.27;3.30;;;3.30;71.70;;;;;;5083223;28;20171;-89
2021/12/03 19:46:37;;;;;;;4.40;2.73;;;3.30;71.80;;;;;;5076985;28;20187;-89
2021/12/03 19:49:13;;;;;;;3.97;3.37;;;3.30;72.10;;;;;;5057423;28;20200;-88
2021/12/03 19:52:00;;;;;;;5.13;3.63;;;3.30;71.40;;;;;;5080879;28;20222;-89
2021/12/03 19:54:27;;;;;;;4.27;2.93;;;3.30;71.20;;;;;;5060367;28;20180;-88
2021/12/03 19:56:53;;;;;;;4.27;3.13;;;3.20;70.80;;;;;;5069367;28;20322;-86
2021/12/03 19:59:19;;;;;;;5.80;2.97;;;3.30;71.80;;;;;;5087494;28;20215;-86
2021/12/03 20:01:46;;;;;;;3.93;3.10;;;3.40;70.70;;;;;;5074686;28;20215;-87
2021/12/03 20:04:15;;;;;;;2.97;2.33;;;3.50;69.60;;;;;;5077339;28;20183;-86
2021/12/03 20:06:44;;;;;;;3.63;3.00;;;3.40;69.50;;;;;;5083091;28;20204;-87
2021/12/03 20:09:28;;;;;;;4.07;2.77;;;3.60;69.10;;;;;;5063159;28;20741;-86
2021/12/03 20:12:02;;;;;;;2.77;2.40;;;3.40;69.00;;;;;;5064002;28;20207;-86
2021/12/03 20:14:28;;;;;;;3.37;2.83;;;3.50;68.20;;;;;;5086614;28;21170;-86
2021/12/03 20:16:59;;;;;;;3.93;2.83;;;3.60;68.40;;;;;;5085848;28;20254;-86
2021/12/03 20:21:55;;;;;;;3.17;2.37;;;3.50;68.30;;;;;;5091178;28;20214;-85
2021/12/03 20:24:31;;;;;;;3.07;2.43;;;3.50;68.00;;;;;;5083145;28;20207;-86
2021/12/03 20:27:06;;;;;;;2.30;2.10;;;3.60;66.20;;;;;;5067313;28;20183;-85
2021/12/03 20:29:46;;;;;;;3.23;2.70;;;3.70;66.70;;;;;;5060527;28;20191;-86
2021/12/03 20:35:00;;;;;;;7.43;2.40;;;3.80;65.60;;;;;;5087750;28;20233;-89
2021/12/03 20:37:31;;;;;;;2.43;2.10;;;3.90;64.90;;;;;;5065271;28;20199;-89
2021/12/03 20:40:01;;;;;;;5.57;2.63;;;3.90;65.00;;;;;;5089210;28;20211;-89
2021/12/03 20:42:43;;;;;;;3.97;2.30;;;3.80;65.70;;;;;;5051192;28;20190;-89
2021/12/03 20:45:29;;;;;;;2.87;2.00;;;3.90;64.30;;;;;;5082423;28;20283;-90
2021/12/03 21:09:20;;;;;;;2.30;1.90;;;4.20;63.70;;;;;;5083271;28;20206;-91
2021/12/03 21:11:52;;;;;;;2.57;2.30;;;4.00;64.00;;;;;;5068002;28;20207;-90
2021/12/03 21:14:20;;;;;;;3.23;2.43;;;3.90;63.80;;;;;;5083396;28;20180;-89
2021/12/03 21:19:42;;;;;;;4.13;2.50;;;3.90;64.80;;;;;;5086137;28;20194;-88
2021/12/03 21:22:19;;;;;;;2.43;2.23;;;4.10;63.50;;;;;;5084110;28;20703;-88
2021/12/03 21:24:47;;;;;;;3.00;2.60;;;4.10;64.20;;;;;;5082228;28;20198;-89
2021/12/03 21:27:20;;;;;;;3.30;2.50;;;4.00;64.50;;;;;;5083475;28;20191;-87
2021/12/03 21:32:26;;;;;;;3.17;2.40;;;4.10;63.10;;;;;;5088081;28;20168;-88
2021/12/03 21:43:12;;;;;;;2.33;1.97;;;4.40;59.30;;;;;;5078764;28;20206;-86
2021/12/03 21:45:38;;;;;;;2.57;1.87;;;4.20;60.60;;;;;;5077757;28;20176;-89
2021/12/03 21:48:07;;;;;;;2.63;2.37;;;4.30;59.90;;;;;;5065359;28;20187;-88